Time;durP1;ratioP1;P1;durP2;ratioP2;P2;SDS_P1;SDS_P2;PMS_P1;PMS_P2;Temp;Humidity;BMP_temperature;BMP_pressure;BME280_temperature;BME280_humidity;BME280_pressure;Samples;Min_cycle;Max_cycle;Signal;HPM_P1;HPM_P2
2023/10/22 00:00:52;;;;;;;0.50;0.50;;;;;;;;;;5005271;28;20182;-84
2023/10/22 00:03:18;;;;;;;0.60;0.60;;;;;;;;;;5004629;28;20188;-83
2023/10/22 00:05:44;;;;;;;0.50;0.50;;;;;;;;;;5004172;28;20212;-83
2023/10/22 00:08:10;;;;;;;0.50;0.50;;;;;;;;;;5004708;28;20173;-84
2023/10/22 00:10:36;;;;;;;0.50;0.50;;;;;;;;;;5004970;28;20188;-83
2023/10/22 00:13:02;;;;;;;0.50;0.50;;;;;;;;;;5005278;28;20181;-84
2023/10/22 00:15:28;;;;;;;0.57;0.57;;;;;;;;;;5004511;28;20209;-82
2023/10/22 00:17:54;;;;;;;0.60;0.60;;;;;;;;;;5008254;28;20240;-82
2023/10/22 00:20:20;;;;;;;0.50;0.50;;;;;;;;;;5011762;28;20636;-83
2023/10/22 00:22:46;;;;;;;0.50;0.50;;;;;;;;;;5010602;28;20249;-84
2023/10/22 00:25:12;;;;;;;0.50;0.50;;;;;;;;;;5009589;28;20231;-83
2023/10/22 00:27:38;;;;;;;0.60;0.60;;;;;;;;;;5010856;28;20221;-84
2023/10/22 00:30:05;;;;;;;0.50;0.50;;;;;;;;;;5009701;28;20870;-84
2023/10/22 00:32:32;;;;;;;0.60;0.60;;;;;;;;;;5009811;28;20252;-83
2023/10/22 00:34:58;;;;;;;0.53;0.53;;;;;;;;;;5006091;28;20236;-83
2023/10/22 00:37:24;;;;;;;0.70;0.70;;;;;;;;;;5007905;28;20173;-83
2023/10/22 00:39:50;;;;;;;0.50;0.50;;;;;;;;;;5007624;28;20204;-83
2023/10/22 00:42:16;;;;;;;0.50;0.50;;;;;;;;;;5007769;28;20212;-83
2023/10/22 00:44:42;;;;;;;0.60;0.60;;;;;;;;;;5007132;28;20173;-85
2023/10/22 00:47:10;;;;;;;0.60;0.60;;;;;;;;;;5007525;28;20236;-84
2023/10/22 00:49:38;;;;;;;0.60;0.60;;;;;;;;;;5008046;28;20185;-84
2023/10/22 00:52:05;;;;;;;0.57;0.57;;;;;;;;;;5007913;28;20197;-81
2023/10/22 00:54:31;;;;;;;0.50;0.50;;;;;;;;;;5008485;28;20189;-82
2023/10/22 00:56:58;;;;;;;0.60;0.60;;;;;;;;;;5008147;28;20223;-82
2023/10/22 00:59:25;;;;;;;0.80;0.80;;;;;;;;;;5008574;28;20201;-84
2023/10/22 01:01:51;;;;;;;0.53;0.53;;;;;;;;;;5008548;28;20188;-82
2023/10/22 01:04:18;;;;;;;0.60;0.60;;;;;;;;;;5007959;28;20213;-82
2023/10/22 01:06:52;;;;;;;0.57;0.57;;;;;;;;;;5010643;28;20344;-84
2023/10/22 01:09:18;;;;;;;0.50;0.50;;;;;;;;;;5009544;28;20189;-82
2023/10/22 01:11:59;;;;;;;0.50;0.50;;;;;;;;;;5010332;28;20204;-82
2023/10/22 01:14:25;;;;;;;0.60;0.60;;;;;;;;;;5009093;28;20188;-82
2023/10/22 01:16:51;;;;;;;0.50;0.50;;;;;;;;;;5009024;28;20213;-84
2023/10/22 01:19:17;;;;;;;0.67;0.67;;;;;;;;;;5010146;28;20181;-83
2023/10/22 01:21:43;;;;;;;0.70;0.70;;;;;;;;;;5009031;28;20615;-83
2023/10/22 01:24:09;;;;;;;0.70;0.70;;;;;;;;;;5009668;28;20200;-84
2023/10/22 01:26:41;;;;;;;0.60;0.60;;;;;;;;;;5010475;28;20213;-82
2023/10/22 01:29:07;;;;;;;0.60;0.60;;;;;;;;;;5009290;28;20181;-84
2023/10/22 01:31:34;;;;;;;0.63;0.63;;;;;;;;;;5010764;28;20178;-84
2023/10/22 01:34:00;;;;;;;0.70;0.70;;;;;;;;;;5010056;28;20180;-82
2023/10/22 01:36:26;;;;;;;0.60;0.60;;;;;;;;;;5010225;28;20267;-84
2023/10/22 01:38:52;;;;;;;0.50;0.50;;;;;;;;;;5010540;28;20183;-83
2023/10/22 01:41:19;;;;;;;0.60;0.60;;;;;;;;;;5010132;28;20177;-83
2023/10/22 01:43:45;;;;;;;0.70;0.70;;;;;;;;;;5008881;28;20673;-82
2023/10/22 01:46:11;;;;;;;0.50;0.50;;;;;;;;;;5010867;28;20193;-84
2023/10/22 01:48:38;;;;;;;0.57;0.57;;;;;;;;;;5010280;28;20185;-83
2023/10/22 01:51:06;;;;;;;0.60;0.60;;;;;;;;;;5012650;28;20177;-83
2023/10/22 01:53:31;;;;;;;0.70;0.70;;;;;;;;;;5010933;28;20173;-84
2023/10/22 01:55:57;;;;;;;0.60;0.60;;;;;;;;;;5011632;28;20285;-82
2023/10/22 01:58:24;;;;;;;0.70;0.70;;;;;;;;;;5018528;28;20169;-82
2023/10/22 02:00:50;;;;;;;0.67;0.67;;;;;;;;;;5018611;28;20169;-82
2023/10/22 02:03:16;;;;;;;0.60;0.60;;;;;;;;;;5018270;28;20173;-83
2023/10/22 02:05:42;;;;;;;0.63;0.63;;;;;;;;;;5013974;28;20236;-85
2023/10/22 02:08:09;;;;;;;0.70;0.70;;;;;;;;;;5003358;28;20717;-84
2023/10/22 02:10:35;;;;;;;0.60;0.60;;;;;;;;;;5003614;28;20180;-85
2023/10/22 02:13:01;;;;;;;0.60;0.60;;;;;;;;;;5002464;28;20173;-84
2023/10/22 02:15:27;;;;;;;0.60;0.60;;;;;;;;;;5003079;28;20236;-85
2023/10/22 02:17:53;;;;;;;0.67;0.67;;;;;;;;;;5019358;28;20188;-85
2023/10/22 02:20:19;;;;;;;0.63;0.63;;;;;;;;;;5003298;28;20677;-84
2023/10/22 02:22:45;;;;;;;0.67;0.67;;;;;;;;;;5003377;28;20216;-85
2023/10/22 02:25:11;;;;;;;0.67;0.67;;;;;;;;;;5002623;28;20678;-85
2023/10/22 02:27:37;;;;;;;0.70;0.70;;;;;;;;;;5004098;28;20554;-84
2023/10/22 02:30:03;;;;;;;0.70;0.70;;;;;;;;;;5004635;28;20173;-84
2023/10/22 02:32:29;;;;;;;0.70;0.70;;;;;;;;;;5004149;28;20665;-85
2023/10/22 02:34:55;;;;;;;0.80;0.80;;;;;;;;;;5003732;28;20193;-84
2023/10/22 02:37:21;;;;;;;0.70;0.70;;;;;;;;;;5005102;28;20181;-85
2023/10/22 02:39:47;;;;;;;0.70;0.70;;;;;;;;;;5003212;28;20224;-84
2023/10/22 02:42:14;;;;;;;0.70;0.70;;;;;;;;;;5004831;28;20185;-84
2023/10/22 02:44:40;;;;;;;0.70;0.70;;;;;;;;;;5004604;28;20181;-84
2023/10/22 02:47:06;;;;;;;0.60;0.60;;;;;;;;;;5004872;28;20751;-85
2023/10/22 02:49:32;;;;;;;0.70;0.70;;;;;;;;;;5004096;28;20185;-85
2023/10/22 02:51:58;;;;;;;0.70;0.70;;;;;;;;;;5005499;28;20192;-85
2023/10/22 02:54:24;;;;;;;0.60;0.60;;;;;;;;;;5005739;28;20189;-83
2023/10/22 02:56:50;;;;;;;0.67;0.67;;;;;;;;;;5010878;28;20227;-82
2023/10/22 02:59:16;;;;;;;0.70;0.70;;;;;;;;;;5017896;28;20193;-82
2023/10/22 03:01:43;;;;;;;0.60;0.60;;;;;;;;;;5017472;28;20199;-83
2023/10/22 03:04:09;;;;;;;0.73;0.73;;;;;;;;;;4998920;28;20185;-84
2023/10/22 03:06:40;;;;;;;0.60;0.60;;;;;;;;;;4996276;28;20225;-84
2023/10/22 03:09:07;;;;;;;0.70;0.70;;;;;;;;;;4997469;28;20188;-84
2023/10/22 03:11:33;;;;;;;0.70;0.70;;;;;;;;;;4998348;28;20523;-83
2023/10/22 03:13:59;;;;;;;0.57;0.57;;;;;;;;;;4997957;28;20638;-84
2023/10/22 03:16:25;;;;;;;0.70;0.70;;;;;;;;;;4995625;28;20255;-83
2023/10/22 03:18:51;;;;;;;0.60;0.60;;;;;;;;;;4997182;28;20259;-84
2023/10/22 03:21:19;;;;;;;0.60;0.60;;;;;;;;;;4996758;28;20221;-84
2023/10/22 03:23:45;;;;;;;0.60;0.60;;;;;;;;;;4996392;28;20177;-83
2023/10/22 03:26:14;;;;;;;0.60;0.60;;;;;;;;;;4995574;28;20204;-85
2023/10/22 03:28:40;;;;;;;0.60;0.60;;;;;;;;;;4996789;28;20188;-83
2023/10/22 03:31:06;;;;;;;0.80;0.80;;;;;;;;;;4996263;28;20177;-84
2023/10/22 03:33:32;;;;;;;0.70;0.70;;;;;;;;;;4996216;28;20169;-84
2023/10/22 03:35:59;;;;;;;0.70;0.70;;;;;;;;;;4995048;28;20209;-85
2023/10/22 03:38:25;;;;;;;0.80;0.80;;;;;;;;;;5013171;28;20256;-82
2023/10/22 03:41:02;;;;;;;0.70;0.70;;;;;;;;;;5017663;28;20161;-82
2023/10/22 03:43:28;;;;;;;0.70;0.70;;;;;;;;;;5014746;28;20192;-84
2023/10/22 03:45:58;;;;;;;0.70;0.70;;;;;;;;;;4996667;28;20254;-84
2023/10/22 03:48:28;;;;;;;0.60;0.60;;;;;;;;;;4996568;28;20177;-85
2023/10/22 03:50:54;;;;;;;0.70;0.70;;;;;;;;;;4996873;28;20181;-83
2023/10/22 03:53:21;;;;;;;0.70;0.70;;;;;;;;;;5000496;28;20180;-83
2023/10/22 03:55:47;;;;;;;0.70;0.70;;;;;;;;;;5000877;28;20208;-84
2023/10/22 03:58:13;;;;;;;0.70;0.70;;;;;;;;;;5001090;28;20268;-84
2023/10/22 04:00:39;;;;;;;0.70;0.70;;;;;;;;;;5000190;28;20215;-83
2023/10/22 04:03:07;;;;;;;0.80;0.80;;;;;;;;;;5018555;28;20176;-81
2023/10/22 04:05:33;;;;;;;0.80;0.80;;;;;;;;;;5021032;28;20205;-81
2023/10/22 04:07:59;;;;;;;0.70;0.70;;;;;;;;;;5021733;28;20227;-81
2023/10/22 04:10:25;;;;;;;0.73;0.73;;;;;;;;;;5021632;28;20173;-80
2023/10/22 04:12:51;;;;;;;0.70;0.70;;;;;;;;;;5021523;28;20157;-81
2023/10/22 04:15:17;;;;;;;0.70;0.70;;;;;;;;;;5020623;28;20205;-82
2023/10/22 04:17:46;;;;;;;0.50;0.50;;;;;;;;;;5020257;28;20184;-84
2023/10/22 04:20:12;;;;;;;0.70;0.70;;;;;;;;;;5017610;28;20169;-82
2023/10/22 04:22:38;;;;;;;0.73;0.73;;;;;;;;;;5020537;28;20181;-82
2023/10/22 04:25:04;;;;;;;0.70;0.70;;;;;;;;;;5020029;28;20254;-82
2023/10/22 04:27:30;;;;;;;0.70;0.70;;;;;;;;;;5019621;28;20193;-83
2023/10/22 04:29:56;;;;;;;0.70;0.70;;;;;;;;;;5005790;28;20268;-84
2023/10/22 04:32:24;;;;;;;0.70;0.70;;;;;;;;;;5005714;28;20606;-85
2023/10/22 04:34:51;;;;;;;0.60;0.60;;;;;;;;;;5005257;28;20201;-84
2023/10/22 04:37:19;;;;;;;0.80;0.80;;;;;;;;;;5003805;28;20208;-84
2023/10/22 04:39:45;;;;;;;0.67;0.67;;;;;;;;;;5005014;28;20565;-83
2023/10/22 04:42:11;;;;;;;0.60;0.60;;;;;;;;;;5005052;28;20616;-84
2023/10/22 04:44:37;;;;;;;0.70;0.70;;;;;;;;;;5009440;28;20212;-84
2023/10/22 04:47:03;;;;;;;0.60;0.60;;;;;;;;;;5016865;28;20715;-84
2023/10/22 04:49:31;;;;;;;0.60;0.60;;;;;;;;;;5009829;28;20177;-85
2023/10/22 04:51:57;;;;;;;0.70;0.70;;;;;;;;;;5005055;28;20185;-84
2023/10/22 04:54:23;;;;;;;0.70;0.70;;;;;;;;;;5004409;28;20211;-83
2023/10/22 04:56:49;;;;;;;0.70;0.70;;;;;;;;;;5012522;28;20215;-83
2023/10/22 04:59:15;;;;;;;0.63;0.63;;;;;;;;;;5025970;28;20204;-85
2023/10/22 05:01:41;;;;;;;0.73;0.73;;;;;;;;;;5025493;28;20724;-83
2023/10/22 05:04:07;;;;;;;0.80;0.80;;;;;;;;;;5024671;28;20185;-85
2023/10/22 05:06:33;;;;;;;0.60;0.60;;;;;;;;;;5027669;28;20280;-83
2023/10/22 05:09:01;;;;;;;0.63;0.63;;;;;;;;;;5027601;28;20235;-83
2023/10/22 05:11:27;;;;;;;0.60;0.60;;;;;;;;;;5027754;28;20594;-84
2023/10/22 05:13:55;;;;;;;0.70;0.70;;;;;;;;;;5028702;28;20203;-84
2023/10/22 05:16:21;;;;;;;0.70;0.70;;;;;;;;;;5027237;28;20287;-83
2023/10/22 05:18:47;;;;;;;0.70;0.70;;;;;;;;;;5026682;28;20718;-84
2023/10/22 05:21:13;;;;;;;0.70;0.70;;;;;;;;;;5027900;28;20172;-85
2023/10/22 05:23:39;;;;;;;0.60;0.60;;;;;;;;;;5024108;28;20180;-84
2023/10/22 05:26:09;;;;;;;0.80;0.80;;;;;;;;;;5024658;28;20204;-83
2023/10/22 05:28:35;;;;;;;0.70;0.70;;;;;;;;;;5024629;28;20208;-84
2023/10/22 05:31:01;;;;;;;0.70;0.70;;;;;;;;;;5024543;28;20189;-84
2023/10/22 05:33:27;;;;;;;0.70;0.70;;;;;;;;;;5026296;28;20181;-84
2023/10/22 05:35:54;;;;;;;0.70;0.70;;;;;;;;;;5024498;28;20236;-84
2023/10/22 05:38:20;;;;;;;0.70;0.70;;;;;;;;;;5021419;28;20179;-85
2023/10/22 05:40:45;;;;;;;0.70;0.70;;;;;;;;;;5023837;28;20498;-83
2023/10/22 05:43:12;;;;;;;0.80;0.80;;;;;;;;;;5023465;28;20181;-84
2023/10/22 05:45:38;;;;;;;0.70;0.70;;;;;;;;;;5023360;28;20206;-84
2023/10/22 05:48:05;;;;;;;0.60;0.60;;;;;;;;;;5025445;28;20205;-84
2023/10/22 05:50:31;;;;;;;0.70;0.70;;;;;;;;;;5028772;28;20177;-84
2023/10/22 05:52:57;;;;;;;0.60;0.60;;;;;;;;;;5026527;28;20271;-83
2023/10/22 05:55:23;;;;;;;0.80;0.80;;;;;;;;;;5028245;28;20232;-84
2023/10/22 05:57:49;;;;;;;0.77;0.77;;;;;;;;;;5027410;28;20181;-84
2023/10/22 06:00:15;;;;;;;0.70;0.70;;;;;;;;;;5023063;28;20177;-84
2023/10/22 06:02:41;;;;;;;0.70;0.70;;;;;;;;;;5023685;28;20177;-83
2023/10/22 06:05:08;;;;;;;0.70;0.70;;;;;;;;;;5024138;28;20219;-84
2023/10/22 06:07:34;;;;;;;0.70;0.70;;;;;;;;;;5025554;28;20180;-84
2023/10/22 06:10:00;;;;;;;0.80;0.80;;;;;;;;;;5025188;28;20176;-82
2023/10/22 06:12:26;;;;;;;0.70;0.70;;;;;;;;;;5025725;28;20180;-83
2023/10/22 06:14:52;;;;;;;0.60;0.60;;;;;;;;;;5022592;28;20200;-83
2023/10/22 06:17:18;;;;;;;0.77;0.77;;;;;;;;;;5025805;28;20251;-83
2023/10/22 06:19:44;;;;;;;0.53;0.53;;;;;;;;;;5025947;28;20185;-83
2023/10/22 06:22:11;;;;;;;0.60;0.60;;;;;;;;;;5015304;28;20608;-82
2023/10/22 06:24:37;;;;;;;0.60;0.60;;;;;;;;;;5015734;28;20188;-83
2023/10/22 06:27:03;;;;;;;0.70;0.70;;;;;;;;;;5010894;28;20224;-83
2023/10/22 06:29:29;;;;;;;0.63;0.63;;;;;;;;;;5023727;28;20223;-83
2023/10/22 06:31:56;;;;;;;0.60;0.60;;;;;;;;;;5015499;28;20176;-83
2023/10/22 06:34:34;;;;;;;0.60;0.60;;;;;;;;;;5021923;28;20211;-84
2023/10/22 06:37:00;;;;;;;0.80;0.80;;;;;;;;;;5026183;28;20242;-85
2023/10/22 06:39:27;;;;;;;0.70;0.70;;;;;;;;;;5030532;28;20172;-83
2023/10/22 06:41:52;;;;;;;0.60;0.60;;;;;;;;;;5029773;28;20187;-84
2023/10/22 06:44:18;;;;;;;0.50;0.50;;;;;;;;;;5022833;28;20181;-84
2023/10/22 06:46:45;;;;;;;0.50;0.50;;;;;;;;;;5014786;28;20196;-85
2023/10/22 06:49:11;;;;;;;0.50;0.50;;;;;;;;;;5015724;28;20181;-82
2023/10/22 06:51:38;;;;;;;0.50;0.50;;;;;;;;;;5023314;28;20165;-83
2023/10/22 06:54:05;;;;;;;0.40;0.40;;;;;;;;;;5023229;28;20435;-83
2023/10/22 06:56:33;;;;;;;0.37;0.37;;;;;;;;;;5023934;28;20378;-82
2023/10/22 06:59:03;;;;;;;0.40;0.40;;;;;;;;;;5022692;28;20197;-85
2023/10/22 07:01:29;;;;;;;0.30;0.30;;;;;;;;;;5010433;28;20207;-84
2023/10/22 07:03:56;;;;;;;0.30;0.30;;;;;;;;;;5007435;28;20232;-85
2023/10/22 07:06:22;;;;;;;0.30;0.30;;;;;;;;;;5007870;28;20204;-85
2023/10/22 07:08:49;;;;;;;0.30;0.30;;;;;;;;;;5007701;28;20180;-85
2023/10/22 07:11:15;;;;;;;0.40;0.40;;;;;;;;;;5008551;28;20668;-83
2023/10/22 07:13:41;;;;;;;0.30;0.30;;;;;;;;;;5007470;28;20178;-85
2023/10/22 07:16:07;;;;;;;0.30;0.30;;;;;;;;;;5014106;28;20216;-84
2023/10/22 07:18:34;;;;;;;0.30;0.30;;;;;;;;;;5009634;28;20204;-81
2023/10/22 07:21:00;;;;;;;0.50;0.50;;;;;;;;;;5008597;28;20173;-83
2023/10/22 07:23:31;;;;;;;0.40;0.40;;;;;;;;;;5006657;28;20173;-82
2023/10/22 07:25:57;;;;;;;0.50;0.50;;;;;;;;;;5006646;28;20398;-85
2023/10/22 07:28:23;;;;;;;0.50;0.50;;;;;;;;;;5005604;28;20264;-83
2023/10/22 07:30:49;;;;;;;0.53;0.53;;;;;;;;;;5006283;28;20197;-87
2023/10/22 07:33:18;;;;;;;0.40;0.40;;;;;;;;;;4999586;28;20193;-84
2023/10/22 07:35:54;;;;;;;0.50;0.50;;;;;;;;;;5004584;28;20225;-83
2023/10/22 07:38:20;;;;;;;0.40;0.40;;;;;;;;;;4997835;28;20193;-82
2023/10/22 07:40:50;;;;;;;0.60;0.60;;;;;;;;;;4996771;28;20173;-85
2023/10/22 07:43:17;;;;;;;0.50;0.50;;;;;;;;;;5002114;28;20199;-84
2023/10/22 07:45:45;;;;;;;0.30;0.30;;;;;;;;;;5010257;28;20259;-84
2023/10/22 07:48:11;;;;;;;0.50;0.50;;;;;;;;;;5015751;28;20212;-82
2023/10/22 07:50:38;;;;;;;0.50;0.50;;;;;;;;;;4999902;28;20220;-87
2023/10/22 07:53:05;;;;;;;0.50;0.50;;;;;;;;;;5001311;28;20172;-80
2023/10/22 07:55:31;;;;;;;0.40;0.40;;;;;;;;;;5015455;28;20292;-84
2023/10/22 07:57:58;;;;;;;0.50;0.50;;;;;;;;;;5017505;28;20166;-83
2023/10/22 08:00:25;;;;;;;0.40;0.40;;;;;;;;;;5012451;28;20264;-83
2023/10/22 08:02:51;;;;;;;0.30;0.30;;;;;;;;;;4996337;28;20172;-83
2023/10/22 08:05:17;;;;;;;0.50;0.50;;;;;;;;;;4996716;28;20213;-84
2023/10/22 08:07:43;;;;;;;0.33;0.33;;;;;;;;;;4998989;28;20201;-84
2023/10/22 08:10:09;;;;;;;0.30;0.30;;;;;;;;;;4998663;28;20666;-84
2023/10/22 08:12:35;;;;;;;0.50;0.50;;;;;;;;;;4999055;28;20220;-89
2023/10/22 08:15:01;;;;;;;0.30;0.30;;;;;;;;;;4999610;28;20197;-83
2023/10/22 08:17:27;;;;;;;0.30;0.30;;;;;;;;;;5004023;28;20558;-84
2023/10/22 08:19:53;;;;;;;0.30;0.30;;;;;;;;;;5015522;28;20181;-81
2023/10/22 08:22:19;;;;;;;0.43;0.43;;;;;;;;;;5014748;28;20189;-83
2023/10/22 08:24:49;;;;;;;0.30;0.30;;;;;;;;;;5005317;28;20184;-85
2023/10/22 08:27:15;;;;;;;0.40;0.40;;;;;;;;;;4999160;28;20173;-81
2023/10/22 08:29:41;;;;;;;0.43;0.43;;;;;;;;;;4998025;28;20173;-85
2023/10/22 08:32:07;;;;;;;0.50;0.50;;;;;;;;;;5000994;28;20191;-83
2023/10/22 08:34:34;;;;;;;0.47;0.47;;;;;;;;;;5000970;28;20188;-83
2023/10/22 08:37:00;;;;;;;0.40;0.40;;;;;;;;;;5008546;28;20228;-77
2023/10/22 08:39:26;;;;;;;0.30;0.30;;;;;;;;;;5007970;28;20203;-81
2023/10/22 08:42:00;;;;;;;0.40;0.40;;;;;;;;;;5008728;28;20237;-80
2023/10/22 08:44:28;;;;;;;0.50;0.50;;;;;;;;;;5004639;28;20235;-87
2023/10/22 08:46:55;;;;;;;0.50;0.50;;;;;;;;;;5001156;28;20197;-82
2023/10/22 08:49:22;;;;;;;0.40;0.40;;;;;;;;;;5007441;28;20180;-80
2023/10/22 08:51:48;;;;;;;0.40;0.40;;;;;;;;;;5011753;28;20237;-79
2023/10/22 08:54:16;;;;;;;0.40;0.40;;;;;;;;;;5013005;28;20237;-84
2023/10/22 08:56:42;;;;;;;0.40;0.40;;;;;;;;;;5015109;28;20221;-81
2023/10/22 08:59:08;;;;;;;0.50;0.50;;;;;;;;;;5014095;28;20185;-81
2023/10/22 09:01:35;;;;;;;0.40;0.40;;;;;;;;;;5008366;28;20181;-80
2023/10/22 09:04:01;;;;;;;0.40;0.40;;;;;;;;;;5003722;28;20177;-82
2023/10/22 09:06:27;;;;;;;0.60;0.60;;;;;;;;;;5005307;28;20213;-82
2023/10/22 09:08:53;;;;;;;0.40;0.40;;;;;;;;;;5003114;28;20181;-83
2023/10/22 09:11:20;;;;;;;0.40;0.40;;;;;;;;;;5005116;28;20181;-83
2023/10/22 09:13:47;;;;;;;0.60;0.60;;;;;;;;;;5007125;28;20185;-82
2023/10/22 09:16:27;;;;;;;0.40;0.40;;;;;;;;;;5004187;28;20315;-82
2023/10/22 09:18:53;;;;;;;0.50;0.50;;;;;;;;;;5006921;28;20650;-81
2023/10/22 09:21:19;;;;;;;0.50;0.50;;;;;;;;;;5007052;28;20184;-81
2023/10/22 09:24:02;;;;;;;0.50;0.50;;;;;;;;;;5008810;28;20178;-82
2023/10/22 09:26:41;;;;;;;0.47;0.47;;;;;;;;;;5009978;28;20801;-85
2023/10/22 09:29:07;;;;;;;0.60;0.60;;;;;;;;;;5015591;28;20165;-81
2023/10/22 09:31:33;;;;;;;0.50;0.50;;;;;;;;;;5015731;28;20181;-81
2023/10/22 09:34:00;;;;;;;0.43;0.43;;;;;;;;;;5014491;28;20169;-82
2023/10/22 09:36:26;;;;;;;0.50;0.50;;;;;;;;;;5014646;28;20224;-81
2023/10/22 09:38:52;;;;;;;0.40;0.40;;;;;;;;;;5016811;28;20161;-81
2023/10/22 09:41:29;;;;;;;0.50;0.50;;;;;;;;;;5021393;28;20177;-80
2023/10/22 09:43:55;;;;;;;0.40;0.40;;;;;;;;;;5011294;28;20179;-83
2023/10/22 09:46:21;;;;;;;0.30;0.30;;;;;;;;;;5011003;28;20212;-79
2023/10/22 09:48:48;;;;;;;0.33;0.33;;;;;;;;;;5018469;28;20533;-81
2023/10/22 09:51:15;;;;;;;0.40;0.40;;;;;;;;;;5021853;28;20176;-83
2023/10/22 09:53:52;;;;;;;0.50;0.50;;;;;;;;;;5021571;28;20180;-85
2023/10/22 09:56:19;;;;;;;0.30;0.30;;;;;;;;;;5010521;28;20297;-83
2023/10/22 09:58:47;;;;;;;0.30;0.30;;;;;;;;;;5006004;28;20260;-83
2023/10/22 10:01:14;;;;;;;0.40;0.40;;;;;;;;;;5000507;28;20216;-85
2023/10/22 10:03:40;;;;;;;0.43;0.43;;;;;;;;;;5008930;28;20173;-83
2023/10/22 10:06:07;;;;;;;0.40;0.40;;;;;;;;;;5013227;28;20212;-84
2023/10/22 10:08:38;;;;;;;0.40;0.40;;;;;;;;;;5018549;28;20222;-82
2023/10/22 10:11:14;;;;;;;0.40;0.40;;;;;;;;;;5016587;28;20177;-84
2023/10/22 10:13:40;;;;;;;0.50;0.50;;;;;;;;;;5008848;28;20169;-83
2023/10/22 10:16:06;;;;;;;0.43;0.43;;;;;;;;;;5007630;28;20586;-85
2023/10/22 10:18:58;;;;;;;0.30;0.30;;;;;;;;;;5002667;28;20177;-82
2023/10/22 10:21:39;;;;;;;0.40;0.40;;;;;;;;;;5005914;28;20639;-84
2023/10/22 10:24:23;;;;;;;0.37;0.37;;;;;;;;;;5009870;28;20260;-85
2023/10/22 10:27:11;;;;;;;0.40;0.40;;;;;;;;;;5010785;28;20196;-84
2023/10/22 10:29:37;;;;;;;0.43;0.43;;;;;;;;;;5003348;28;20169;-84
2023/10/22 10:32:15;;;;;;;0.50;0.50;;;;;;;;;;5013383;28;20189;-82
2023/10/22 10:34:46;;;;;;;0.40;0.40;;;;;;;;;;5023358;28;20185;-80
2023/10/22 10:37:15;;;;;;;0.50;0.50;;;;;;;;;;5017692;28;20231;-82
2023/10/22 10:39:42;;;;;;;0.40;0.40;;;;;;;;;;5005891;28;20184;-84
2023/10/22 10:42:08;;;;;;;0.40;0.40;;;;;;;;;;5007958;28;20169;-82
2023/10/22 10:44:54;;;;;;;0.30;0.30;;;;;;;;;;5004486;28;20534;-83
2023/10/22 10:47:30;;;;;;;0.40;0.40;;;;;;;;;;5003205;28;20181;-84
2023/10/22 10:50:13;;;;;;;0.60;0.60;;;;;;;;;;5005493;28;20176;-82
2023/10/22 10:52:39;;;;;;;0.40;0.40;;;;;;;;;;5006843;28;20180;-84
2023/10/22 10:55:08;;;;;;;0.40;0.40;;;;;;;;;;4997596;28;20283;-85
2023/10/22 10:57:34;;;;;;;0.40;0.40;;;;;;;;;;5006543;28;20272;-84
2023/10/22 11:00:00;;;;;;;0.40;0.40;;;;;;;;;;5017894;28;20201;-80
2023/10/22 11:02:27;;;;;;;0.43;0.43;;;;;;;;;;5015683;28;20185;-82
2023/10/22 11:04:53;;;;;;;0.30;0.30;;;;;;;;;;5011108;28;20212;-85
2023/10/22 11:07:19;;;;;;;0.30;0.30;;;;;;;;;;5007744;28;20196;-82
2023/10/22 11:09:52;;;;;;;0.30;0.30;;;;;;;;;;5007766;28;20194;-85
2023/10/22 11:12:20;;;;;;;0.50;0.50;;;;;;;;;;5006429;28;20196;-84
2023/10/22 11:14:54;;;;;;;0.40;0.40;;;;;;;;;;5007338;28;20177;-84
2023/10/22 11:17:20;;;;;;;0.43;0.43;;;;;;;;;;5007875;28;20212;-87
2023/10/22 11:19:52;;;;;;;0.47;0.47;;;;;;;;;;4996909;28;20173;-82
2023/10/22 11:22:19;;;;;;;0.47;0.47;;;;;;;;;;4999029;28;20681;-87
2023/10/22 11:24:45;;;;;;;0.40;0.40;;;;;;;;;;5004317;28;20176;-83
2023/10/22 11:27:12;;;;;;;0.40;0.40;;;;;;;;;;5012884;28;20212;-82
2023/10/22 11:29:44;;;;;;;0.40;0.40;;;;;;;;;;5028068;28;20238;-82
2023/10/22 11:32:14;;;;;;;0.40;0.40;;;;;;;;;;5023781;28;20361;-81
2023/10/22 11:34:50;;;;;;;0.40;0.40;;;;;;;;;;5031807;28;20188;-80
2023/10/22 11:37:18;;;;;;;0.30;0.30;;;;;;;;;;5025678;28;20208;-85
2023/10/22 11:39:44;;;;;;;0.40;0.40;;;;;;;;;;5013999;28;20189;-84
2023/10/22 11:42:11;;;;;;;0.47;0.47;;;;;;;;;;5007674;28;20181;-84
2023/10/22 11:44:37;;;;;;;0.30;0.30;;;;;;;;;;5008047;28;20255;-83
2023/10/22 11:47:23;;;;;;;0.30;0.30;;;;;;;;;;5016723;28;20177;-85
2023/10/22 11:49:49;;;;;;;0.40;0.40;;;;;;;;;;5017373;28;20180;-84
2023/10/22 11:52:39;;;;;;;0.30;0.30;;;;;;;;;;5017556;28;20187;-83
2023/10/22 11:55:06;;;;;;;0.40;0.40;;;;;;;;;;5016356;28;20200;-84
2023/10/22 11:57:33;;;;;;;0.37;0.37;;;;;;;;;;5019095;28;20222;-84
2023/10/22 11:59:59;;;;;;;0.30;0.30;;;;;;;;;;5032514;28;20246;-80
2023/10/22 12:02:25;;;;;;;0.30;0.30;;;;;;;;;;5019116;28;20245;-83
2023/10/22 12:04:51;;;;;;;0.40;0.40;;;;;;;;;;5005955;28;20617;-83
2023/10/22 12:07:17;;;;;;;0.30;0.30;;;;;;;;;;5001112;28;20177;-83
2023/10/22 12:09:44;;;;;;;0.30;0.30;;;;;;;;;;4997948;28;20182;-82
2023/10/22 12:12:09;;;;;;;0.33;0.33;;;;;;;;;;4993512;28;20191;-86
2023/10/22 12:14:38;;;;;;;0.40;0.40;;;;;;;;;;5000915;28;20181;-84
2023/10/22 12:17:04;;;;;;;0.37;0.37;;;;;;;;;;5019576;28;20229;-87
2023/10/22 12:19:30;;;;;;;0.40;0.40;;;;;;;;;;5022282;28;20169;-81
2023/10/22 12:21:56;;;;;;;0.43;0.43;;;;;;;;;;5023548;28;20176;-77
2023/10/22 12:24:22;;;;;;;0.37;0.37;;;;;;;;;;5016101;28;20184;-79
2023/10/22 12:26:48;;;;;;;0.40;0.40;;;;;;;;;;5007381;28;20220;-82
2023/10/22 12:29:14;;;;;;;0.40;0.40;;;;;;;;;;5000235;28;20256;-78
2023/10/22 12:31:41;;;;;;;0.47;0.47;;;;;;;;;;5007784;28;20188;-81
2023/10/22 12:34:07;;;;;;;0.50;0.50;;;;;;;;;;5022157;28;20199;-79
2023/10/22 12:36:33;;;;;;;0.47;0.47;;;;;;;;;;5017819;28;20212;-80
2023/10/22 12:38:59;;;;;;;0.50;0.50;;;;;;;;;;5019476;28;20191;-80
2023/10/22 12:41:25;;;;;;;0.60;0.60;;;;;;;;;;5014683;28;20256;-81
2023/10/22 12:43:51;;;;;;;0.47;0.47;;;;;;;;;;5012277;28;20185;-86
2023/10/22 12:46:17;;;;;;;0.50;0.50;;;;;;;;;;5010586;28;20589;-85
2023/10/22 12:48:44;;;;;;;0.50;0.50;;;;;;;;;;5008490;28;20174;-83
2023/10/22 12:51:10;;;;;;;0.40;0.40;;;;;;;;;;5006213;28;20243;-81
2023/10/22 12:53:36;;;;;;;0.50;0.50;;;;;;;;;;5009141;28;20179;-82
2023/10/22 12:56:02;;;;;;;0.50;0.50;;;;;;;;;;5010422;28;20221;-86
2023/10/22 12:58:28;;;;;;;0.40;0.40;;;;;;;;;;5008082;28;20189;-89
2023/10/22 13:00:54;;;;;;;0.50;0.50;;;;;;;;;;5007645;28;20234;-82
2023/10/22 13:03:20;;;;;;;0.47;0.47;;;;;;;;;;5020830;28;20189;-81
2023/10/22 13:05:46;;;;;;;0.70;0.70;;;;;;;;;;5015249;28;20224;-85
2023/10/22 13:08:12;;;;;;;0.33;0.33;;;;;;;;;;5018458;28;20195;-83
2023/10/22 13:10:48;;;;;;;0.40;0.40;;;;;;;;;;5020776;28;20187;-84
2023/10/22 13:13:14;;;;;;;0.40;0.40;;;;;;;;;;5021603;28;20196;-80
2023/10/22 13:15:40;;;;;;;0.40;0.40;;;;;;;;;;5019871;28;20208;-84
2023/10/22 13:18:06;;;;;;;0.40;0.40;;;;;;;;;;5012037;28;20248;-83
2023/10/22 13:20:32;;;;;;;0.40;0.40;;;;;;;;;;5027232;28;20184;-80
2023/10/22 13:22:58;;;;;;;0.40;0.40;;;;;;;;;;5023402;28;20172;-80
2023/10/22 13:25:24;;;;;;;0.40;0.40;;;;;;;;;;5028555;28;20204;-88
2023/10/22 13:27:50;;;;;;;0.40;0.40;;;;;;;;;;5018822;28;20180;-85
2023/10/22 13:30:17;;;;;;;0.30;0.30;;;;;;;;;;5017519;28;20600;-89
2023/10/22 13:32:43;;;;;;;0.40;0.40;;;;;;;;;;5017247;28;20267;-88
2023/10/22 13:35:09;;;;;;;0.40;0.40;;;;;;;;;;5016553;28;20530;-90
2023/10/22 13:37:35;;;;;;;0.40;0.40;;;;;;;;;;5015081;28;20220;-89
2023/10/22 13:40:03;;;;;;;0.50;0.50;;;;;;;;;;5017802;28;20521;-89
2023/10/22 13:42:29;;;;;;;0.40;0.40;;;;;;;;;;4998785;28;20185;-89
2023/10/22 13:44:55;;;;;;;0.40;0.40;;;;;;;;;;4995391;28;20208;-89
2023/10/22 13:47:21;;;;;;;0.40;0.40;;;;;;;;;;5007398;28;20180;-88
2023/10/22 13:49:48;;;;;;;0.37;0.37;;;;;;;;;;5015626;28;20559;-88
2023/10/22 13:52:14;;;;;;;0.40;0.40;;;;;;;;;;5016036;28;20184;-88
2023/10/22 13:54:40;;;;;;;0.40;0.40;;;;;;;;;;5013884;28;20199;-88
2023/10/22 13:57:06;;;;;;;0.40;0.40;;;;;;;;;;5016362;28;20219;-89
2023/10/22 13:59:32;;;;;;;0.40;0.40;;;;;;;;;;5015894;28;20193;-90
2023/10/22 14:01:59;;;;;;;0.40;0.40;;;;;;;;;;5015471;28;20173;-89
2023/10/22 14:04:25;;;;;;;0.40;0.40;;;;;;;;;;5015107;28;20195;-90
2023/10/22 14:06:51;;;;;;;0.30;0.30;;;;;;;;;;5002714;28;20197;-86
2023/10/22 14:09:17;;;;;;;0.40;0.40;;;;;;;;;;5015977;28;20244;-87
2023/10/22 14:11:43;;;;;;;0.40;0.40;;;;;;;;;;5016575;28;20260;-86
2023/10/22 14:14:09;;;;;;;0.50;0.50;;;;;;;;;;5016425;28;20607;-87
2023/10/22 14:16:35;;;;;;;0.50;0.50;;;;;;;;;;5020410;28;20712;-85
2023/10/22 14:19:01;;;;;;;0.37;0.37;;;;;;;;;;5017090;28;20185;-89
2023/10/22 14:21:27;;;;;;;0.40;0.40;;;;;;;;;;5017873;28;20185;-89
2023/10/22 14:23:54;;;;;;;0.40;0.40;;;;;;;;;;5015343;28;20223;-87
2023/10/22 14:26:20;;;;;;;0.33;0.33;;;;;;;;;;5014262;28;20208;-87
2023/10/22 14:28:46;;;;;;;0.50;0.50;;;;;;;;;;5015881;28;20239;-87
2023/10/22 14:31:12;;;;;;;0.40;0.40;;;;;;;;;;5016369;28;20212;-87
2023/10/22 14:33:38;;;;;;;0.47;0.47;;;;;;;;;;5015241;28;20184;-85
2023/10/22 14:36:05;;;;;;;0.40;0.40;;;;;;;;;;5014535;28;20212;-86
2023/10/22 14:38:31;;;;;;;0.40;0.40;;;;;;;;;;5017394;28;20204;-89
2023/10/22 14:41:01;;;;;;;0.43;0.43;;;;;;;;;;5031099;28;20189;-87
2023/10/22 14:43:27;;;;;;;0.37;0.37;;;;;;;;;;5031582;28;20190;-87